sensor_id;sensor_type;location;lat;lon;timestamp;pressure;altitude;pressure_sealevel;temperature;humidity
7584;BME280;3833;41.764;26.204;2023-03-03T00:01:15;99148.72;;;7.13;100.00
7584;BME280;3833;41.764;26.204;2023-03-03T00:03:42;99029.56;;;6.35;100.00
7584;BME280;3833;41.764;26.204;2023-03-03T00:06:11;99103.94;;;6.71;100.00
7584;BME280;3833;41.764;26.204;2023-03-03T00:08:38;99029.06;;;6.45;100.00
7584;BME280;3833;41.764;26.204;2023-03-03T00:11:07;99105.78;;;7.06;100.00
7584;BME280;3833;41.764;26.204;2023-03-03T00:13:43;99073.41;;;6.96;100.00
7584;BME280;3833;41.764;26.204;2023-03-03T00:16:14;99097.38;;;7.01;100.00
7584;BME280;3833;41.764;26.204;2023-03-03T00:18:43;99133.16;;;7.31;100.00
7584;BME280;3833;41.764;26.204;2023-03-03T00:21:26;99136.56;;;7.32;100.00
7584;BME280;3833;41.764;26.204;2023-03-03T00:24:01;99135.94;;;7.27;100.00
7584;BME280;3833;41.764;26.204;2023-03-03T00:26:34;99128.78;;;7.32;100.00
7584;BME280;3833;41.764;26.204;2023-03-03T00:29:23;99116.56;;;7.34;100.00
7584;BME280;3833;41.764;26.204;2023-03-03T00:31:52;99102.97;;;7.29;100.00
7584;BME280;3833;41.764;26.204;2023-03-03T00:34:24;99119.34;;;7.48;100.00
7584;BME280;3833;41.764;26.204;2023-03-03T00:36:53;99105.91;;;7.40;100.00
7584;BME280;3833;41.764;26.204;2023-03-03T00:39:28;99127.41;;;7.60;100.00
7584;BME280;3833;41.764;26.204;2023-03-03T00:41:58;99125.50;;;7.64;100.00
7584;BME280;3833;41.764;26.204;2023-03-03T00:44:40;99121.56;;;7.55;100.00
7584;BME280;3833;41.764;26.204;2023-03-03T00:47:28;99123.72;;;7.47;100.00
7584;BME280;3833;41.764;26.204;2023-03-03T00:50:16;99117.38;;;7.53;100.00
7584;BME280;3833;41.764;26.204;2023-03-03T00:52:55;99119.47;;;7.63;100.00
7584;BME280;3833;41.764;26.204;2023-03-03T00:55:25;99110.06;;;7.61;100.00
7584;BME280;3833;41.764;26.204;2023-03-03T00:57:53;99114.69;;;7.54;100.00
7584;BME280;3833;41.764;26.204;2023-03-03T01:00:20;99114.88;;;7.51;100.00
7584;BME280;3833;41.764;26.204;2023-03-03T01:02:47;99115.00;;;7.48;100.00
7584;BME280;3833;41.764;26.204;2023-03-03T01:05:15;99105.25;;;7.53;100.00
7584;BME280;3833;41.764;26.204;2023-03-03T01:07:42;99065.06;;;7.25;100.00
7584;BME280;3833;41.764;26.204;2023-03-03T01:10:10;99098.56;;;7.48;100.00
7584;BME280;3833;41.764;26.204;2023-03-03T01:12:37;99092.31;;;7.52;100.00
7584;BME280;3833;41.764;26.204;2023-03-03T01:15:08;99090.50;;;7.54;100.00
7584;BME280;3833;41.764;26.204;2023-03-03T01:17:35;99088.03;;;7.51;100.00
7584;BME280;3833;41.764;26.204;2023-03-03T01:20:05;99089.19;;;7.62;100.00
7584;BME280;3833;41.764;26.204;2023-03-03T01:22:32;99089.44;;;7.58;100.00
7584;BME280;3833;41.764;26.204;2023-03-03T01:24:59;99083.31;;;7.59;100.00
7584;BME280;3833;41.764;26.204;2023-03-03T01:27:28;99060.38;;;7.33;100.00
7584;BME280;3833;41.764;26.204;2023-03-03T01:29:55;99089.72;;;7.52;100.00
7584;BME280;3833;41.764;26.204;2023-03-03T01:32:24;99093.53;;;7.45;100.00
7584;BME280;3833;41.764;26.204;2023-03-03T01:34:51;99087.78;;;7.38;100.00
7584;BME280;3833;41.764;26.204;2023-03-03T01:37:18;99092.00;;;7.41;100.00
7584;BME280;3833;41.764;26.204;2023-03-03T01:39:47;99056.53;;;7.23;100.00
7584;BME280;3833;41.764;26.204;2023-03-03T01:42:14;99064.25;;;7.24;100.00
7584;BME280;3833;41.764;26.204;2023-03-03T01:44:41;99090.38;;;7.38;100.00
7584;BME280;3833;41.764;26.204;2023-03-03T01:47:10;98969.66;;;6.59;100.00
7584;BME280;3833;41.764;26.204;2023-03-03T01:49:43;99096.72;;;7.33;100.00
7584;BME280;3833;41.764;26.204;2023-03-03T01:52:20;99098.06;;;7.23;100.00
7584;BME280;3833;41.764;26.204;2023-03-03T01:54:52;99069.03;;;7.15;100.00
7584;BME280;3833;41.764;26.204;2023-03-03T01:57:24;99050.78;;;7.17;100.00
7584;BME280;3833;41.764;26.204;2023-03-03T01:59:54;99081.75;;;7.38;100.00
7584;BME280;3833;41.764;26.204;2023-03-03T02:02:24;99059.44;;;7.34;100.00
7584;BME280;3833;41.764;26.204;2023-03-03T02:04:54;99087.91;;;7.54;100.00
7584;BME280;3833;41.764;26.204;2023-03-03T02:07:22;99092.19;;;7.55;100.00
7584;BME280;3833;41.764;26.204;2023-03-03T02:09:54;99059.31;;;7.54;100.00
7584;BME280;3833;41.764;26.204;2023-03-03T02:12:29;99094.66;;;7.75;100.00
7584;BME280;3833;41.764;26.204;2023-03-03T02:14:57;99097.25;;;7.75;100.00
7584;BME280;3833;41.764;26.204;2023-03-03T02:17:24;98972.66;;;7.04;100.00
7584;BME280;3833;41.764;26.204;2023-03-03T02:19:57;99070.19;;;7.62;100.00
7584;BME280;3833;41.764;26.204;2023-03-03T02:22:31;99096.63;;;7.70;100.00
7584;BME280;3833;41.764;26.204;2023-03-03T02:25:03;99079.81;;;7.77;100.00
7584;BME280;3833;41.764;26.204;2023-03-03T02:27:33;99081.50;;;7.78;100.00
7584;BME280;3833;41.764;26.204;2023-03-03T02:30:12;99085.84;;;7.77;100.00
7584;BME280;3833;41.764;26.204;2023-03-03T02:32:40;99085.94;;;7.76;100.00
7584;BME280;3833;41.764;26.204;2023-03-03T02:35:25;99079.97;;;7.74;100.00
7584;BME280;3833;41.764;26.204;2023-03-03T02:37:52;99083.19;;;7.79;100.00
7584;BME280;3833;41.764;26.204;2023-03-03T02:40:23;99059.19;;;7.74;100.00
7584;BME280;3833;41.764;26.204;2023-03-03T02:42:54;99075.53;;;7.76;100.00
7584;BME280;3833;41.764;26.204;2023-03-03T02:45:23;99081.38;;;7.81;100.00
7584;BME280;3833;41.764;26.204;2023-03-03T02:47:50;99042.38;;;7.64;100.00
7584;BME280;3833;41.764;26.204;2023-03-03T02:50:17;99079.97;;;7.74;100.00
7584;BME280;3833;41.764;26.204;2023-03-03T02:52:44;99048.16;;;7.52;100.00
7584;BME280;3833;41.764;26.204;2023-03-03T02:55:11;99073.84;;;7.75;100.00
7584;BME280;3833;41.764;26.204;2023-03-03T02:57:38;99054.91;;;7.56;100.00
7584;BME280;3833;41.764;26.204;2023-03-03T03:00:07;99065.44;;;7.53;100.00
7584;BME280;3833;41.764;26.204;2023-03-03T03:02:34;99069.56;;;7.57;100.00
7584;BME280;3833;41.764;26.204;2023-03-03T03:05:01;99070.63;;;7.53;100.00
7584;BME280;3833;41.764;26.204;2023-03-03T03:07:28;99053.97;;;7.40;100.00
7584;BME280;3833;41.764;26.204;2023-03-03T03:09:55;98953.88;;;6.82;100.00
7584;BME280;3833;41.764;26.204;2023-03-03T03:12:21;99068.19;;;7.50;100.00
7584;BME280;3833;41.764;26.204;2023-03-03T03:14:48;99074.00;;;7.55;100.00
7584;BME280;3833;41.764;26.204;2023-03-03T03:17:16;99066.94;;;7.40;100.00
7584;BME280;3833;41.764;26.204;2023-03-03T03:19:43;99037.41;;;7.24;100.00
7584;BME280;3833;41.764;26.204;2023-03-03T03:22:10;99069.94;;;7.49;100.00
7584;BME280;3833;41.764;26.204;2023-03-03T03:24:37;99067.91;;;7.37;100.00
7584;BME280;3833;41.764;26.204;2023-03-03T03:27:04;99082.91;;;7.32;100.00
7584;BME280;3833;41.764;26.204;2023-03-03T03:29:31;99074.19;;;7.33;100.00
7584;BME280;3833;41.764;26.204;2023-03-03T03:31:57;99069.97;;;7.31;100.00
7584;BME280;3833;41.764;26.204;2023-03-03T03:34:26;99063.81;;;7.33;100.00
7584;BME280;3833;41.764;26.204;2023-03-03T03:36:53;99061.97;;;7.35;100.00
7584;BME280;3833;41.764;26.204;2023-03-03T03:39:19;99038.81;;;7.31;100.00
7584;BME280;3833;41.764;26.204;2023-03-03T03:41:46;99063.91;;;7.49;100.00
7584;BME280;3833;41.764;26.204;2023-03-03T03:44:13;99059.03;;;7.43;100.00
7584;BME280;3833;41.764;26.204;2023-03-03T03:46:40;99065.84;;;7.27;100.00
7584;BME280;3833;41.764;26.204;2023-03-03T03:49:07;99048.97;;;7.35;100.00
7584;BME280;3833;41.764;26.204;2023-03-03T03:51:35;99016.44;;;7.12;100.00
7584;BME280;3833;41.764;26.204;2023-03-03T03:54:05;99027.81;;;7.26;100.00
7584;BME280;3833;41.764;26.204;2023-03-03T03:56:32;99050.13;;;7.30;100.00
7584;BME280;3833;41.764;26.204;2023-03-03T03:58:59;99054.53;;;7.28;100.00
7584;BME280;3833;41.764;26.204;2023-03-03T04:01:26;99045.44;;;7.19;100.00
7584;BME280;3833;41.764;26.204;2023-03-03T04:03:53;99051.78;;;7.14;100.00
7584;BME280;3833;41.764;26.204;2023-03-03T04:06:20;99052.19;;;7.23;100.00
7584;BME280;3833;41.764;26.204;2023-03-03T04:08:48;99047.38;;;7.33;100.00
7584;BME280;3833;41.764;26.204;2023-03-03T04:11:16;99027.34;;;7.18;100.00
7584;BME280;3833;41.764;26.204;2023-03-03T04:13:43;99044.09;;;7.29;100.00
7584;BME280;3833;41.764;26.204;2023-03-03T04:16:10;99050.41;;;7.24;100.00
7584;BME280;3833;41.764;26.204;2023-03-03T04:18:36;98946.38;;;6.58;100.00
7584;BME280;3833;41.764;26.204;2023-03-03T04:21:04;99056.22;;;7.29;100.00
7584;BME280;3833;41.764;26.204;2023-03-03T04:23:31;99027.09;;;7.06;100.00
7584;BME280;3833;41.764;26.204;2023-03-03T04:25:59;99046.56;;;7.32;100.00
7584;BME280;3833;41.764;26.204;2023-03-03T04:28:26;99045.13;;;7.44;100.00
7584;BME280;3833;41.764;26.204;2023-03-03T04:30:53;99047.50;;;7.48;100.00
7584;BME280;3833;41.764;26.204;2023-03-03T04:33:19;98931.31;;;6.66;100.00
7584;BME280;3833;41.764;26.204;2023-03-03T04:35:46;99047.53;;;7.47;100.00
7584;BME280;3833;41.764;26.204;2023-03-03T04:38:13;99051.06;;;7.46;100.00
7584;BME280;3833;41.764;26.204;2023-03-03T04:40:40;99047.47;;;7.31;100.00
7584;BME280;3833;41.764;26.204;2023-03-03T04:43:09;99001.97;;;7.06;100.00
7584;BME280;3833;41.764;26.204;2023-03-03T04:45:36;99059.44;;;7.34;100.00
7584;BME280;3833;41.764;26.204;2023-03-03T04:48:03;99056.44;;;7.43;100.00
7584;BME280;3833;41.764;26.204;2023-03-03T04:50:30;99056.56;;;7.40;100.00
7584;BME280;3833;41.764;26.204;2023-03-03T04:52:57;99054.50;;;7.46;100.00
7584;BME280;3833;41.764;26.204;2023-03-03T04:55:24;99062.06;;;7.51;100.00
7584;BME280;3833;41.764;26.204;2023-03-03T04:57:51;99062.97;;;7.50;100.00
7584;BME280;3833;41.764;26.204;2023-03-03T05:00:19;99057.34;;;7.42;100.00
7584;BME280;3833;41.764;26.204;2023-03-03T05:02:46;99038.06;;;7.29;100.00
7584;BME280;3833;41.764;26.204;2023-03-03T05:05:14;99047.53;;;7.30;100.00
7584;BME280;3833;41.764;26.204;2023-03-03T05:07:40;99064.03;;;7.46;100.00
7584;BME280;3833;41.764;26.204;2023-03-03T05:10:08;99041.56;;;7.28;100.00
7584;BME280;3833;41.764;26.204;2023-03-03T05:12:35;99069.06;;;7.32;100.00
7584;BME280;3833;41.764;26.204;2023-03-03T05:15:03;99058.31;;;7.39;100.00
7584;BME280;3833;41.764;26.204;2023-03-03T05:17:31;99059.44;;;7.34;100.00
7584;BME280;3833;41.764;26.204;2023-03-03T05:19:58;99061.78;;;7.21;100.00
7584;BME280;3833;41.764;26.204;2023-03-03T05:22:25;99056.22;;;7.29;100.00
7584;BME280;3833;41.764;26.204;2023-03-03T05:24:52;99069.06;;;7.32;100.00
7584;BME280;3833;41.764;26.204;2023-03-03T05:27:19;99075.63;;;7.22;100.00
7584;BME280;3833;41.764;26.204;2023-03-03T05:29:46;99072.41;;;7.17;100.00
7584;BME280;3833;41.764;26.204;2023-03-03T05:32:13;99076.69;;;7.18;100.00
7584;BME280;3833;41.764;26.204;2023-03-03T05:34:41;99080.97;;;7.19;100.00
7584;BME280;3833;41.764;26.204;2023-03-03T05:37:08;99060.19;;;7.19;100.00
7584;BME280;3833;41.764;26.204;2023-03-03T05:39:35;99074.41;;;7.29;100.00
7584;BME280;3833;41.764;26.204;2023-03-03T05:42:01;99072.66;;;7.29;100.00
7584;BME280;3833;41.764;26.204;2023-03-03T05:44:28;99079.03;;;7.22;100.00
7584;BME280;3833;41.764;26.204;2023-03-03T05:46:55;98959.16;;;6.62;100.00
7584;BME280;3833;41.764;26.204;2023-03-03T05:49:23;99078.50;;;7.16;100.00
7584;BME280;3833;41.764;26.204;2023-03-03T05:51:51;99070.06;;;7.29;100.00
7584;BME280;3833;41.764;26.204;2023-03-03T05:54:18;99067.31;;;7.32;100.00
7584;BME280;3833;41.764;26.204;2023-03-03T05:56:46;99008.16;;;7.04;100.00
7584;BME280;3833;41.764;26.204;2023-03-03T05:59:13;99062.34;;;7.45;100.00
7584;BME280;3833;41.764;26.204;2023-03-03T06:01:40;99066.88;;;7.41;100.00
7584;BME280;3833;41.764;26.204;2023-03-03T06:04:07;99061.03;;;7.36;100.00
7584;BME280;3833;41.764;26.204;2023-03-03T06:06:34;99072.44;;;7.34;100.00
7584;BME280;3833;41.764;26.204;2023-03-03T06:09:04;99066.50;;;7.49;100.00
7584;BME280;3833;41.764;26.204;2023-03-03T06:11:31;99070.34;;;7.59;100.00
7584;BME280;3833;41.764;26.204;2023-03-03T06:13:58;99063.31;;;7.44;100.00
7584;BME280;3833;41.764;26.204;2023-03-03T06:16:25;99065.16;;;7.59;100.00
7584;BME280;3833;41.764;26.204;2023-03-03T06:18:52;98997.75;;;7.22;100.00
7584;BME280;3833;41.764;26.204;2023-03-03T06:21:19;99062.47;;;7.60;100.00
7584;BME280;3833;41.764;26.204;2023-03-03T06:23:45;99071.56;;;7.69;100.00
7584;BME280;3833;41.764;26.204;2023-03-03T06:26:14;99069.34;;;7.61;100.00
7584;BME280;3833;41.764;26.204;2023-03-03T06:28:41;99079.69;;;7.80;100.00
7584;BME280;3833;41.764;26.204;2023-03-03T06:31:07;99048.41;;;7.64;100.00
7584;BME280;3833;41.764;26.204;2023-03-03T06:33:34;99063.56;;;7.73;100.00
7584;BME280;3833;41.764;26.204;2023-03-03T06:36:03;99050.78;;;7.69;100.00
7584;BME280;3833;41.764;26.204;2023-03-03T06:38:29;99066.97;;;7.91;100.00
7584;BME280;3833;41.764;26.204;2023-03-03T06:40:56;99075.53;;;7.93;100.00
7584;BME280;3833;41.764;26.204;2023-03-03T06:43:27;99069.81;;;7.86;100.00
7584;BME280;3833;41.764;26.204;2023-03-03T06:45:54;99075.78;;;7.88;100.00
7584;BME280;3833;41.764;26.204;2023-03-03T06:48:21;99071.50;;;7.87;100.00
7584;BME280;3833;41.764;26.204;2023-03-03T06:50:48;99045.13;;;7.78;100.00
7584;BME280;3833;41.764;26.204;2023-03-03T06:53:16;98998.81;;;7.69;100.00
7584;BME280;3833;41.764;26.204;2023-03-03T06:55:44;99047.97;;;7.90;100.00
7584;BME280;3833;41.764;26.204;2023-03-03T06:58:12;99049.84;;;7.87;100.00
7584;BME280;3833;41.764;26.204;2023-03-03T07:00:42;98977.22;;;7.51;100.00
7584;BME280;3833;41.764;26.204;2023-03-03T07:03:14;99066.53;;;8.00;100.00
7584;BME280;3833;41.764;26.204;2023-03-03T07:05:41;99054.22;;;7.86;100.00
7584;BME280;3833;41.764;26.204;2023-03-03T07:08:13;98937.13;;;7.23;100.00
7584;BME280;3833;41.764;26.204;2023-03-03T07:10:41;99076.44;;;8.09;100.00
7584;BME280;3833;41.764;26.204;2023-03-03T07:13:19;99049.69;;;7.90;100.00
7584;BME280;3833;41.764;26.204;2023-03-03T07:15:50;99066.69;;;7.97;100.00
7584;BME280;3833;41.764;26.204;2023-03-03T07:18:29;99066.28;;;8.04;100.00
7584;BME280;3833;41.764;26.204;2023-03-03T07:20:59;99070.81;;;8.18;100.00
7584;BME280;3833;41.764;26.204;2023-03-03T07:23:35;99066.16;;;8.24;100.00
7584;BME280;3833;41.764;26.204;2023-03-03T07:26:07;99041.41;;;8.32;100.00
7584;BME280;3833;41.764;26.204;2023-03-03T07:28:40;99062.03;;;8.52;100.00
7584;BME280;3833;41.764;26.204;2023-03-03T07:31:25;99061.56;;;8.61;100.00
7584;BME280;3833;41.764;26.204;2023-03-03T07:33:53;99067.56;;;8.62;100.00
7584;BME280;3833;41.764;26.204;2023-03-03T07:36:26;99062.06;;;8.68;100.00
7584;BME280;3833;41.764;26.204;2023-03-03T07:38:54;99057.88;;;8.65;100.00
7584;BME280;3833;41.764;26.204;2023-03-03T07:41:23;99056.28;;;8.78;100.00
7584;BME280;3833;41.764;26.204;2023-03-03T07:43:51;99011.69;;;8.53;100.00
7584;BME280;3833;41.764;26.204;2023-03-03T07:46:28;98933.84;;;7.86;100.00
7584;BME280;3833;41.764;26.204;2023-03-03T07:48:57;99057.84;;;8.50;100.00
7584;BME280;3833;41.764;26.204;2023-03-03T07:51:26;99054.84;;;8.73;100.00
7584;BME280;3833;41.764;26.204;2023-03-03T07:54:00;99052.47;;;8.53;100.00
7584;BME280;3833;41.764;26.204;2023-03-03T07:56:39;99051.50;;;8.38;100.00
7584;BME280;3833;41.764;26.204;2023-03-03T07:59:17;99028.91;;;8.24;100.00
7584;BME280;3833;41.764;26.204;2023-03-03T08:01:50;99039.31;;;8.24;100.00
7584;BME280;3833;41.764;26.204;2023-03-03T08:04:21;99063.34;;;8.44;100.00
7584;BME280;3833;41.764;26.204;2023-03-03T08:06:52;99061.56;;;8.61;100.00
7584;BME280;3833;41.764;26.204;2023-03-03T08:09:44;99057.34;;;8.10;100.00
7584;BME280;3833;41.764;26.204;2023-03-03T08:12:34;99018.47;;;7.74;100.00
7584;BME280;3833;41.764;26.204;2023-03-03T08:15:20;99060.94;;;8.07;100.00
7584;BME280;3833;41.764;26.204;2023-03-03T08:17:51;98974.84;;;7.64;100.00
7584;BME280;3833;41.764;26.204;2023-03-03T08:20:43;99053.38;;;8.20;100.00
7584;BME280;3833;41.764;26.204;2023-03-03T08:23:11;99050.84;;;8.18;100.00
7584;BME280;3833;41.764;26.204;2023-03-03T08:25:40;99046.03;;;7.94;100.00
7584;BME280;3833;41.764;26.204;2023-03-03T08:28:07;99044.19;;;7.96;100.00
7584;BME280;3833;41.764;26.204;2023-03-03T08:30:34;98993.03;;;7.81;100.00
7584;BME280;3833;41.764;26.204;2023-03-03T08:33:03;99038.31;;;8.26;100.00
7584;BME280;3833;41.764;26.204;2023-03-03T08:35:30;99001.44;;;8.50;100.00
7584;BME280;3833;41.764;26.204;2023-03-03T08:37:57;98901.91;;;8.16;100.00
7584;BME280;3833;41.764;26.204;2023-03-03T08:40:24;99022.88;;;8.86;100.00
7584;BME280;3833;41.764;26.204;2023-03-03T08:42:51;99027.84;;;8.91;100.00
7584;BME280;3833;41.764;26.204;2023-03-03T08:45:18;99016.75;;;8.72;100.00
7584;BME280;3833;41.764;26.204;2023-03-03T08:47:45;99025.13;;;8.92;100.00
7584;BME280;3833;41.764;26.204;2023-03-03T08:50:14;98979.63;;;8.68;100.00
7584;BME280;3833;41.764;26.204;2023-03-03T08:52:41;99026.72;;;9.10;100.00
7584;BME280;3833;41.764;26.204;2023-03-03T08:55:09;99030.59;;;9.03;100.00
7584;BME280;3833;41.764;26.204;2023-03-03T08:57:36;99026.31;;;9.02;100.00
7584;BME280;3833;41.764;26.204;2023-03-03T09:00:06;99026.31;;;9.02;100.00
7584;BME280;3833;41.764;26.204;2023-03-03T09:02:33;99025.81;;;8.80;100.00
7584;BME280;3833;41.764;26.204;2023-03-03T09:05:00;99032.34;;;8.56;100.00
7584;BME280;3833;41.764;26.204;2023-03-03T09:07:28;99020.44;;;8.83;100.00
7584;BME280;3833;41.764;26.204;2023-03-03T09:09:56;99025.50;;;8.86;100.00
7584;BME280;3833;41.764;26.204;2023-03-03T09:12:28;99015.88;;;8.71;100.00
7584;BME280;3833;41.764;26.204;2023-03-03T09:14:57;99029.66;;;8.73;100.00
7584;BME280;3833;41.764;26.204;2023-03-03T09:17:28;99026.81;;;8.78;100.00
7584;BME280;3833;41.764;26.204;2023-03-03T09:19:58;99025.63;;;9.14;100.00
7584;BME280;3833;41.764;26.204;2023-03-03T09:22:30;99031.53;;;9.02;100.00
7584;BME280;3833;41.764;26.204;2023-03-03T09:25:02;99027.94;;;9.34;100.00
7584;BME280;3833;41.764;26.204;2023-03-03T09:27:40;99028.66;;;9.22;100.00
7584;BME280;3833;41.764;26.204;2023-03-03T09:30:26;99034.19;;;9.16;100.00
7584;BME280;3833;41.764;26.204;2023-03-03T09:32:55;99021.31;;;9.44;100.00
7584;BME280;3833;41.764;26.204;2023-03-03T09:35:37;99031.88;;;9.56;100.00
7584;BME280;3833;41.764;26.204;2023-03-03T09:38:18;99028.75;;;9.50;100.00
7584;BME280;3833;41.764;26.204;2023-03-03T09:40:57;99022.75;;;9.34;100.00
7584;BME280;3833;41.764;26.204;2023-03-03T09:43:35;99021.97;;;9.47;100.00
7584;BME280;3833;41.764;26.204;2023-03-03T09:46:20;99022.69;;;9.20;100.00
7584;BME280;3833;41.764;26.204;2023-03-03T09:48:57;98975.94;;;9.03;100.00
7584;BME280;3833;41.764;26.204;2023-03-03T09:51:52;99020.06;;;9.35;100.00
7584;BME280;3833;41.764;26.204;2023-03-03T09:54:36;99012.25;;;9.65;100.00
7584;BME280;3833;41.764;26.204;2023-03-03T09:57:12;99002.06;;;9.90;100.00
7584;BME280;3833;41.764;26.204;2023-03-03T10:00:01;99004.56;;;10.21;100.00
7584;BME280;3833;41.764;26.204;2023-03-03T10:02:45;98999.69;;;10.01;100.00
7584;BME280;3833;41.764;26.204;2023-03-03T10:05:26;98999.56;;;9.88;100.00
7584;BME280;3833;41.764;26.204;2023-03-03T10:08:02;98985.47;;;9.77;100.00
7584;BME280;3833;41.764;26.204;2023-03-03T10:10:44;98854.94;;;8.65;100.00
7584;BME280;3833;41.764;26.204;2023-03-03T10:13:21;98999.34;;;9.48;100.00
7584;BME280;3833;41.764;26.204;2023-03-03T10:16:01;98997.19;;;9.40;100.00
7584;BME280;3833;41.764;26.204;2023-03-03T10:18:38;98998.41;;;9.20;100.00
7584;BME280;3833;41.764;26.204;2023-03-03T10:21:10;99001.97;;;9.03;100.00
7584;BME280;3833;41.764;26.204;2023-03-03T10:23:55;98993.41;;;9.01;100.00
7584;BME280;3833;41.764;26.204;2023-03-03T10:26:41;98973.72;;;9.11;100.00
7584;BME280;3833;41.764;26.204;2023-03-03T10:29:20;98988.59;;;9.09;100.00
7584;BME280;3833;41.764;26.204;2023-03-03T10:32:07;98993.72;;;9.11;100.00
7584;BME280;3833;41.764;26.204;2023-03-03T10:34:54;98988.34;;;9.14;100.00
7584;BME280;3833;41.764;26.204;2023-03-03T10:37:32;98965.84;;;8.97;100.00
7584;BME280;3833;41.764;26.204;2023-03-03T10:40:11;98984.25;;;9.39;100.00
7584;BME280;3833;41.764;26.204;2023-03-03T10:42:54;98990.59;;;9.49;100.00
7584;BME280;3833;41.764;26.204;2023-03-03T10:45:38;98992.03;;;9.25;100.00
7584;BME280;3833;41.764;26.204;2023-03-03T10:48:38;98986.41;;;9.02;100.00
7584;BME280;3833;41.764;26.204;2023-03-03T10:51:17;98979.47;;;9.02;100.00
7584;BME280;3833;41.764;26.204;2023-03-03T10:54:01;98987.34;;;9.01;100.00
7584;BME280;3833;41.764;26.204;2023-03-03T10:56:41;98941.19;;;8.73;100.00
7584;BME280;3833;41.764;26.204;2023-03-03T10:59:30;98972.31;;;8.90;100.00
7584;BME280;3833;41.764;26.204;2023-03-03T11:02:02;98973.88;;;9.08;100.00
7584;BME280;3833;41.764;26.204;2023-03-03T11:04:43;98967.09;;;8.90;100.00
7584;BME280;3833;41.764;26.204;2023-03-03T11:07:20;98966.44;;;9.02;100.00
7584;BME280;3833;41.764;26.204;2023-03-03T11:10:04;98964.31;;;9.09;100.00
7584;BME280;3833;41.764;26.204;2023-03-03T11:12:41;98956.38;;;8.96;100.00
7584;BME280;3833;41.764;26.204;2023-03-03T11:15:25;98930.84;;;8.87;100.00
7584;BME280;3833;41.764;26.204;2023-03-03T11:18:13;98952.09;;;8.95;100.00
7584;BME280;3833;41.764;26.204;2023-03-03T11:20:45;98950.84;;;8.71;100.00
7584;BME280;3833;41.764;26.204;2023-03-03T11:23:37;98952.78;;;8.83;100.00
7584;BME280;3833;41.764;26.204;2023-03-03T11:26:10;98948.97;;;9.04;100.00
7584;BME280;3833;41.764;26.204;2023-03-03T11:28:52;98950.75;;;9.33;100.00
7584;BME280;3833;41.764;26.204;2023-03-03T11:31:27;98948.13;;;9.33;100.00
7584;BME280;3833;41.764;26.204;2023-03-03T11:34:00;98950.53;;;9.22;100.00
7584;BME280;3833;41.764;26.204;2023-03-03T11:36:36;98930.19;;;8.68;100.00
7584;BME280;3833;41.764;26.204;2023-03-03T11:39:08;98921.38;;;8.86;100.00
7584;BME280;3833;41.764;26.204;2023-03-03T11:41:39;98914.81;;;8.95;100.00
7584;BME280;3833;41.764;26.204;2023-03-03T11:44:14;98936.75;;;9.20;100.00
7584;BME280;3833;41.764;26.204;2023-03-03T11:46:48;98940.63;;;9.13;100.00
7584;BME280;3833;41.764;26.204;2023-03-03T11:49:20;98935.75;;;9.07;100.00
7584;BME280;3833;41.764;26.204;2023-03-03T11:51:58;98931.31;;;9.09;100.00
7584;BME280;3833;41.764;26.204;2023-03-03T11:54:31;98923.06;;;9.46;100.00
7584;BME280;3833;41.764;26.204;2023-03-03T11:57:10;98931.31;;;9.82;100.00
7584;BME280;3833;41.764;26.204;2023-03-03T11:59:46;98933.06;;;9.81;100.00
7584;BME280;3833;41.764;26.204;2023-03-03T12:02:37;98919.28;;;9.65;100.00
7584;BME280;3833;41.764;26.204;2023-03-03T12:05:25;98927.13;;;9.36;100.00
7584;BME280;3833;41.764;26.204;2023-03-03T12:07:58;98918.22;;;9.40;100.00
7584;BME280;3833;41.764;26.204;2023-03-03T12:10:33;98926.19;;;9.37;100.00
7584;BME280;3833;41.764;26.204;2023-03-03T12:13:06;98911.22;;;9.11;100.00
7584;BME280;3833;41.764;26.204;2023-03-03T12:15:40;98920.78;;;9.26;100.00
7584;BME280;3833;41.764;26.204;2023-03-03T12:18:25;98856.53;;;8.97;100.00
7584;BME280;3833;41.764;26.204;2023-03-03T12:21:09;98883.41;;;9.41;100.00
7584;BME280;3833;41.764;26.204;2023-03-03T12:23:53;98897.06;;;9.30;100.00
7584;BME280;3833;41.764;26.204;2023-03-03T12:26:30;98896.97;;;9.32;100.00
7584;BME280;3833;41.764;26.204;2023-03-03T12:29:04;98929.28;;;9.43;100.00
7584;BME280;3833;41.764;26.204;2023-03-03T12:31:41;98877.94;;;9.02;100.00
7584;BME280;3833;41.764;26.204;2023-03-03T12:34:19;98930.03;;;9.16;100.00
7584;BME280;3833;41.764;26.204;2023-03-03T12:37:10;98932.94;;;8.96;100.00
7584;BME280;3833;41.764;26.204;2023-03-03T12:39:50;98913.50;;;8.72;100.00
7584;BME280;3833;41.764;26.204;2023-03-03T12:42:28;98906.88;;;8.67;100.00
7584;BME280;3833;41.764;26.204;2023-03-03T12:45:21;98936.13;;;8.86;100.00
7584;BME280;3833;41.764;26.204;2023-03-03T12:47:59;98945.31;;;8.77;100.00
7584;BME280;3833;41.764;26.204;2023-03-03T12:50:37;98940.69;;;8.82;100.00
7584;BME280;3833;41.764;26.204;2023-03-03T12:53:17;98810.53;;;8.24;100.00
7584;BME280;3833;41.764;26.204;2023-03-03T12:55:52;98861.34;;;8.44;100.00
7584;BME280;3833;41.764;26.204;2023-03-03T12:58:28;98921.19;;;8.89;100.00
7584;BME280;3833;41.764;26.204;2023-03-03T13:01:11;98919.41;;;9.05;100.00
7584;BME280;3833;41.764;26.204;2023-03-03T13:03:43;98914.25;;;9.19;100.00
7584;BME280;3833;41.764;26.204;2023-03-03T13:06:21;98913.53;;;9.31;100.00
7584;BME280;3833;41.764;26.204;2023-03-03T13:09:00;98915.63;;;9.54;100.00
7584;BME280;3833;41.764;26.204;2023-03-03T13:11:35;98890.88;;;9.61;100.00
7584;BME280;3833;41.764;26.204;2023-03-03T13:14:15;98916.19;;;9.73;100.00
7584;BME280;3833;41.764;26.204;2023-03-03T13:16:46;98907.19;;;9.78;100.00
7584;BME280;3833;41.764;26.204;2023-03-03T13:19:18;98898.16;;;9.84;100.00
7584;BME280;3833;41.764;26.204;2023-03-03T13:21:50;98902.06;;;9.77;100.00
7584;BME280;3833;41.764;26.204;2023-03-03T13:24:22;98900.38;;;9.90;100.00
7584;BME280;3833;41.764;26.204;2023-03-03T13:26:57;98897.66;;;10.07;100.00
7584;BME280;3833;41.764;26.204;2023-03-03T13:29:29;98898.44;;;10.21;100.00
7584;BME280;3833;41.764;26.204;2023-03-03T13:32:00;98797.06;;;9.61;100.00
7584;BME280;3833;41.764;26.204;2023-03-03T13:34:38;98889.31;;;10.28;100.00
7584;BME280;3833;41.764;26.204;2023-03-03T13:37:13;98848.16;;;9.91;100.00